sensor_id;sensor_type;location;lat;lon;timestamp;P1;durP1;ratioP1;P2;durP2;ratioP2
6725;SDS011;3400;48.506;11.692;2023-02-23T00:01:10;14.43;;;11.77;;
6725;SDS011;3400;48.506;11.692;2023-02-23T00:03:38;14.40;;;11.90;;
6725;SDS011;3400;48.506;11.692;2023-02-23T00:06:07;15.60;;;12.03;;
6725;SDS011;3400;48.506;11.692;2023-02-23T00:08:35;17.70;;;13.33;;
6725;SDS011;3400;48.506;11.692;2023-02-23T00:11:04;17.57;;;13.30;;
6725;SDS011;3400;48.506;11.692;2023-02-23T00:13:32;15.33;;;13.73;;
6725;SDS011;3400;48.506;11.692;2023-02-23T00:16:05;18.20;;;14.00;;
6725;SDS011;3400;48.506;11.692;2023-02-23T00:18:33;17.83;;;13.27;;
6725;SDS011;3400;48.506;11.692;2023-02-23T00:21:12;20.97;;;13.70;;
6725;SDS011;3400;48.506;11.692;2023-02-23T00:23:41;16.03;;;13.30;;
6725;SDS011;3400;48.506;11.692;2023-02-23T00:26:09;18.87;;;14.33;;
6725;SDS011;3400;48.506;11.692;2023-02-23T00:28:39;18.37;;;13.97;;
6725;SDS011;3400;48.506;11.692;2023-02-23T00:31:08;19.40;;;14.30;;
6725;SDS011;3400;48.506;11.692;2023-02-23T00:33:37;18.83;;;13.93;;
6725;SDS011;3400;48.506;11.692;2023-02-23T00:36:07;17.43;;;14.03;;
6725;SDS011;3400;48.506;11.692;2023-02-23T00:38:37;19.17;;;14.60;;
6725;SDS011;3400;48.506;11.692;2023-02-23T00:41:05;20.13;;;14.83;;
6725;SDS011;3400;48.506;11.692;2023-02-23T00:43:34;22.50;;;15.80;;
6725;SDS011;3400;48.506;11.692;2023-02-23T00:46:02;17.87;;;14.70;;
6725;SDS011;3400;48.506;11.692;2023-02-23T00:48:32;20.33;;;15.90;;
6725;SDS011;3400;48.506;11.692;2023-02-23T00:50:59;22.37;;;16.70;;
6725;SDS011;3400;48.506;11.692;2023-02-23T00:53:28;20.83;;;14.80;;
6725;SDS011;3400;48.506;11.692;2023-02-23T00:55:57;25.33;;;17.43;;
6725;SDS011;3400;48.506;11.692;2023-02-23T00:58:25;24.47;;;17.10;;
6725;SDS011;3400;48.506;11.692;2023-02-23T01:00:53;20.47;;;15.50;;
6725;SDS011;3400;48.506;11.692;2023-02-23T01:03:21;21.23;;;15.37;;
6725;SDS011;3400;48.506;11.692;2023-02-23T01:05:48;20.33;;;16.00;;
6725;SDS011;3400;48.506;11.692;2023-02-23T01:08:16;18.40;;;15.00;;
6725;SDS011;3400;48.506;11.692;2023-02-23T01:10:44;27.43;;;17.57;;
6725;SDS011;3400;48.506;11.692;2023-02-23T01:13:19;25.60;;;17.17;;
6725;SDS011;3400;48.506;11.692;2023-02-23T01:15:47;22.10;;;17.17;;
6725;SDS011;3400;48.506;11.692;2023-02-23T01:18:15;23.97;;;16.73;;
6725;SDS011;3400;48.506;11.692;2023-02-23T01:20:43;23.00;;;15.53;;
6725;SDS011;3400;48.506;11.692;2023-02-23T01:23:12;19.40;;;15.33;;
6725;SDS011;3400;48.506;11.692;2023-02-23T01:25:41;19.40;;;14.67;;
6725;SDS011;3400;48.506;11.692;2023-02-23T01:28:09;26.83;;;17.47;;
6725;SDS011;3400;48.506;11.692;2023-02-23T01:30:38;27.90;;;18.37;;
6725;SDS011;3400;48.506;11.692;2023-02-23T01:33:06;25.53;;;18.23;;
6725;SDS011;3400;48.506;11.692;2023-02-23T01:35:34;26.43;;;18.40;;
6725;SDS011;3400;48.506;11.692;2023-02-23T01:38:02;27.80;;;18.63;;
6725;SDS011;3400;48.506;11.692;2023-02-23T01:40:30;25.80;;;18.37;;
6725;SDS011;3400;48.506;11.692;2023-02-23T01:43:09;26.10;;;19.57;;
6725;SDS011;3400;48.506;11.692;2023-02-23T01:45:39;27.90;;;19.37;;
6725;SDS011;3400;48.506;11.692;2023-02-23T01:48:08;32.37;;;19.27;;
6725;SDS011;3400;48.506;11.692;2023-02-23T01:50:39;27.77;;;19.83;;
6725;SDS011;3400;48.506;11.692;2023-02-23T01:53:08;26.80;;;20.77;;
6725;SDS011;3400;48.506;11.692;2023-02-23T01:55:37;27.00;;;19.70;;
6725;SDS011;3400;48.506;11.692;2023-02-23T01:58:06;28.87;;;19.73;;
6725;SDS011;3400;48.506;11.692;2023-02-23T02:00:42;27.80;;;20.23;;
6725;SDS011;3400;48.506;11.692;2023-02-23T02:03:11;30.10;;;20.93;;
6725;SDS011;3400;48.506;11.692;2023-02-23T02:05:41;28.83;;;20.60;;
6725;SDS011;3400;48.506;11.692;2023-02-23T02:08:10;29.57;;;19.80;;
6725;SDS011;3400;48.506;11.692;2023-02-23T02:10:38;32.57;;;21.60;;
6725;SDS011;3400;48.506;11.692;2023-02-23T02:13:10;27.07;;;20.63;;
6725;SDS011;3400;48.506;11.692;2023-02-23T02:15:45;28.23;;;20.20;;
6725;SDS011;3400;48.506;11.692;2023-02-23T02:18:21;25.90;;;19.90;;
6725;SDS011;3400;48.506;11.692;2023-02-23T02:21:01;26.37;;;19.60;;
6725;SDS011;3400;48.506;11.692;2023-02-23T02:26:25;30.07;;;20.27;;
6725;SDS011;3400;48.506;11.692;2023-02-23T02:31:55;29.47;;;19.40;;
6725;SDS011;3400;48.506;11.692;2023-02-23T02:34:35;29.33;;;20.10;;
6725;SDS011;3400;48.506;11.692;2023-02-23T02:37:23;28.37;;;20.80;;
6725;SDS011;3400;48.506;11.692;2023-02-23T02:39:54;24.43;;;19.03;;
6725;SDS011;3400;48.506;11.692;2023-02-23T02:42:40;29.13;;;18.93;;
6725;SDS011;3400;48.506;11.692;2023-02-23T02:45:11;29.70;;;19.50;;
6725;SDS011;3400;48.506;11.692;2023-02-23T02:47:42;27.47;;;20.13;;
6725;SDS011;3400;48.506;11.692;2023-02-23T02:50:13;24.67;;;18.67;;
6725;SDS011;3400;48.506;11.692;2023-02-23T02:52:45;25.50;;;19.47;;
6725;SDS011;3400;48.506;11.692;2023-02-23T02:55:16;30.30;;;21.10;;
6725;SDS011;3400;48.506;11.692;2023-02-23T02:57:50;26.97;;;20.23;;
6725;SDS011;3400;48.506;11.692;2023-02-23T03:00:18;27.27;;;20.63;;
6725;SDS011;3400;48.506;11.692;2023-02-23T03:03:05;26.53;;;19.17;;
6725;SDS011;3400;48.506;11.692;2023-02-23T03:05:50;27.97;;;20.77;;
6725;SDS011;3400;48.506;11.692;2023-02-23T03:08:39;27.13;;;20.63;;
6725;SDS011;3400;48.506;11.692;2023-02-23T03:11:26;28.00;;;20.43;;
6725;SDS011;3400;48.506;11.692;2023-02-23T03:14:16;24.93;;;19.40;;
6725;SDS011;3400;48.506;11.692;2023-02-23T03:17:11;29.03;;;21.40;;
6725;SDS011;3400;48.506;11.692;2023-02-23T03:20:03;28.97;;;22.27;;
6725;SDS011;3400;48.506;11.692;2023-02-23T03:22:52;28.13;;;20.37;;
6725;SDS011;3400;48.506;11.692;2023-02-23T03:25:44;32.60;;;23.57;;
6725;SDS011;3400;48.506;11.692;2023-02-23T03:28:31;32.73;;;22.20;;
6725;SDS011;3400;48.506;11.692;2023-02-23T03:31:22;28.43;;;20.97;;
6725;SDS011;3400;48.506;11.692;2023-02-23T03:34:13;32.37;;;20.90;;
6725;SDS011;3400;48.506;11.692;2023-02-23T03:37:01;32.30;;;21.37;;
6725;SDS011;3400;48.506;11.692;2023-02-23T03:39:50;31.10;;;21.47;;
6725;SDS011;3400;48.506;11.692;2023-02-23T03:42:37;27.97;;;20.17;;
6725;SDS011;3400;48.506;11.692;2023-02-23T03:45:23;29.43;;;21.03;;
6725;SDS011;3400;48.506;11.692;2023-02-23T03:48:11;29.47;;;21.23;;
6725;SDS011;3400;48.506;11.692;2023-02-23T03:50:57;34.60;;;21.43;;
6725;SDS011;3400;48.506;11.692;2023-02-23T03:53:46;34.83;;;23.40;;
6725;SDS011;3400;48.506;11.692;2023-02-23T03:56:32;35.60;;;22.57;;
6725;SDS011;3400;48.506;11.692;2023-02-23T03:59:21;34.83;;;22.27;;
6725;SDS011;3400;48.506;11.692;2023-02-23T04:02:09;30.53;;;21.43;;
6725;SDS011;3400;48.506;11.692;2023-02-23T04:04:56;30.93;;;21.87;;
6725;SDS011;3400;48.506;11.692;2023-02-23T04:07:43;31.40;;;23.23;;
6725;SDS011;3400;48.506;11.692;2023-02-23T04:10:30;37.87;;;21.93;;
6725;SDS011;3400;48.506;11.692;2023-02-23T04:13:19;26.07;;;18.83;;
6725;SDS011;3400;48.506;11.692;2023-02-23T04:15:49;26.80;;;19.60;;
6725;SDS011;3400;48.506;11.692;2023-02-23T04:18:17;23.57;;;18.70;;
6725;SDS011;3400;48.506;11.692;2023-02-23T04:20:47;29.93;;;21.80;;
6725;SDS011;3400;48.506;11.692;2023-02-23T04:23:15;26.83;;;20.33;;
6725;SDS011;3400;48.506;11.692;2023-02-23T04:25:43;30.77;;;22.10;;
6725;SDS011;3400;48.506;11.692;2023-02-23T04:28:12;31.53;;;21.10;;
6725;SDS011;3400;48.506;11.692;2023-02-23T04:30:40;30.87;;;21.10;;
6725;SDS011;3400;48.506;11.692;2023-02-23T04:33:09;37.43;;;23.73;;
6725;SDS011;3400;48.506;11.692;2023-02-23T04:35:37;34.40;;;22.10;;
6725;SDS011;3400;48.506;11.692;2023-02-23T04:38:05;31.63;;;22.43;;
6725;SDS011;3400;48.506;11.692;2023-02-23T04:40:32;33.97;;;23.03;;
6725;SDS011;3400;48.506;11.692;2023-02-23T04:43:00;30.30;;;22.03;;
6725;SDS011;3400;48.506;11.692;2023-02-23T04:45:28;30.80;;;21.93;;
6725;SDS011;3400;48.506;11.692;2023-02-23T04:47:56;28.50;;;21.20;;
6725;SDS011;3400;48.506;11.692;2023-02-23T04:50:25;32.07;;;20.97;;
6725;SDS011;3400;48.506;11.692;2023-02-23T04:52:52;25.57;;;19.87;;
6725;SDS011;3400;48.506;11.692;2023-02-23T04:55:21;29.77;;;21.73;;
6725;SDS011;3400;48.506;11.692;2023-02-23T04:57:50;31.77;;;20.27;;
6725;SDS011;3400;48.506;11.692;2023-02-23T05:00:18;29.50;;;21.10;;
6725;SDS011;3400;48.506;11.692;2023-02-23T05:02:46;31.87;;;21.33;;
6725;SDS011;3400;48.506;11.692;2023-02-23T05:05:13;31.17;;;22.53;;
6725;SDS011;3400;48.506;11.692;2023-02-23T05:07:42;33.30;;;23.07;;
6725;SDS011;3400;48.506;11.692;2023-02-23T05:10:10;28.00;;;20.97;;
6725;SDS011;3400;48.506;11.692;2023-02-23T05:12:38;27.63;;;20.63;;
6725;SDS011;3400;48.506;11.692;2023-02-23T05:15:06;30.00;;;21.83;;
6725;SDS011;3400;48.506;11.692;2023-02-23T05:17:36;29.67;;;21.67;;
6725;SDS011;3400;48.506;11.692;2023-02-23T05:20:06;34.67;;;23.43;;
6725;SDS011;3400;48.506;11.692;2023-02-23T05:22:34;33.00;;;24.23;;
6725;SDS011;3400;48.506;11.692;2023-02-23T05:25:03;32.53;;;22.97;;
6725;SDS011;3400;48.506;11.692;2023-02-23T05:27:31;30.03;;;21.20;;
6725;SDS011;3400;48.506;11.692;2023-02-23T05:29:59;38.30;;;23.23;;
6725;SDS011;3400;48.506;11.692;2023-02-23T05:32:27;31.07;;;21.23;;
6725;SDS011;3400;48.506;11.692;2023-02-23T05:34:54;33.00;;;22.93;;
6725;SDS011;3400;48.506;11.692;2023-02-23T05:37:22;34.40;;;23.13;;
6725;SDS011;3400;48.506;11.692;2023-02-23T05:39:50;33.23;;;22.87;;
6725;SDS011;3400;48.506;11.692;2023-02-23T05:42:19;34.10;;;22.73;;
6725;SDS011;3400;48.506;11.692;2023-02-23T05:44:46;33.50;;;22.80;;
6725;SDS011;3400;48.506;11.692;2023-02-23T05:47:14;30.13;;;22.23;;
6725;SDS011;3400;48.506;11.692;2023-02-23T05:49:42;29.90;;;21.87;;
6725;SDS011;3400;48.506;11.692;2023-02-23T05:52:10;32.03;;;21.23;;
6725;SDS011;3400;48.506;11.692;2023-02-23T05:54:38;29.17;;;21.80;;
6725;SDS011;3400;48.506;11.692;2023-02-23T05:57:06;33.00;;;23.10;;
6725;SDS011;3400;48.506;11.692;2023-02-23T05:59:35;30.90;;;22.50;;
6725;SDS011;3400;48.506;11.692;2023-02-23T06:02:02;33.67;;;23.30;;
6725;SDS011;3400;48.506;11.692;2023-02-23T06:04:30;31.43;;;21.77;;
6725;SDS011;3400;48.506;11.692;2023-02-23T06:06:58;35.87;;;23.80;;
6725;SDS011;3400;48.506;11.692;2023-02-23T06:09:26;31.50;;;23.43;;
6725;SDS011;3400;48.506;11.692;2023-02-23T06:11:53;32.47;;;21.57;;
6725;SDS011;3400;48.506;11.692;2023-02-23T06:14:21;33.80;;;23.13;;
6725;SDS011;3400;48.506;11.692;2023-02-23T06:16:50;33.27;;;22.77;;
6725;SDS011;3400;48.506;11.692;2023-02-23T06:19:18;30.30;;;20.83;;
6725;SDS011;3400;48.506;11.692;2023-02-23T06:21:46;30.70;;;23.13;;
6725;SDS011;3400;48.506;11.692;2023-02-23T06:24:13;30.63;;;21.30;;
6725;SDS011;3400;48.506;11.692;2023-02-23T06:26:42;34.00;;;22.30;;
6725;SDS011;3400;48.506;11.692;2023-02-23T06:29:10;31.50;;;22.50;;
6725;SDS011;3400;48.506;11.692;2023-02-23T06:31:38;35.10;;;23.90;;
6725;SDS011;3400;48.506;11.692;2023-02-23T06:34:07;32.90;;;23.07;;
6725;SDS011;3400;48.506;11.692;2023-02-23T06:36:36;30.43;;;23.33;;
6725;SDS011;3400;48.506;11.692;2023-02-23T06:39:03;31.67;;;21.93;;
6725;SDS011;3400;48.506;11.692;2023-02-23T06:41:31;34.00;;;23.80;;
6725;SDS011;3400;48.506;11.692;2023-02-23T06:44:00;29.33;;;22.27;;
6725;SDS011;3400;48.506;11.692;2023-02-23T06:46:27;30.80;;;22.57;;
6725;SDS011;3400;48.506;11.692;2023-02-23T06:48:57;31.90;;;22.47;;
6725;SDS011;3400;48.506;11.692;2023-02-23T06:51:26;34.50;;;23.63;;
6725;SDS011;3400;48.506;11.692;2023-02-23T06:53:54;35.93;;;23.67;;
6725;SDS011;3400;48.506;11.692;2023-02-23T06:56:22;31.43;;;22.33;;
6725;SDS011;3400;48.506;11.692;2023-02-23T06:58:50;36.17;;;21.80;;
6725;SDS011;3400;48.506;11.692;2023-02-23T07:01:18;34.63;;;25.60;;
6725;SDS011;3400;48.506;11.692;2023-02-23T07:03:46;43.40;;;26.00;;
6725;SDS011;3400;48.506;11.692;2023-02-23T07:06:13;40.30;;;26.83;;
6725;SDS011;3400;48.506;11.692;2023-02-23T07:08:42;35.00;;;26.00;;
6725;SDS011;3400;48.506;11.692;2023-02-23T07:11:11;37.07;;;25.57;;
6725;SDS011;3400;48.506;11.692;2023-02-23T07:13:39;29.23;;;22.13;;
6725;SDS011;3400;48.506;11.692;2023-02-23T07:16:07;31.87;;;22.80;;
6725;SDS011;3400;48.506;11.692;2023-02-23T07:18:35;28.77;;;20.90;;
6725;SDS011;3400;48.506;11.692;2023-02-23T07:21:03;27.37;;;20.87;;
6725;SDS011;3400;48.506;11.692;2023-02-23T07:23:31;23.53;;;17.93;;
6725;SDS011;3400;48.506;11.692;2023-02-23T07:25:59;24.00;;;18.17;;
6725;SDS011;3400;48.506;11.692;2023-02-23T07:28:27;22.03;;;16.63;;
6725;SDS011;3400;48.506;11.692;2023-02-23T07:30:55;25.33;;;18.40;;
6725;SDS011;3400;48.506;11.692;2023-02-23T07:33:23;31.37;;;19.47;;
6725;SDS011;3400;48.506;11.692;2023-02-23T07:35:50;24.40;;;17.97;;
6725;SDS011;3400;48.506;11.692;2023-02-23T07:38:18;24.70;;;18.97;;
6725;SDS011;3400;48.506;11.692;2023-02-23T07:40:48;22.40;;;18.67;;
6725;SDS011;3400;48.506;11.692;2023-02-23T07:43:17;23.63;;;19.13;;
6725;SDS011;3400;48.506;11.692;2023-02-23T07:45:47;24.37;;;19.37;;
6725;SDS011;3400;48.506;11.692;2023-02-23T07:48:15;22.70;;;18.33;;
6725;SDS011;3400;48.506;11.692;2023-02-23T07:50:43;30.73;;;19.57;;
6725;SDS011;3400;48.506;11.692;2023-02-23T07:53:11;21.97;;;18.10;;
6725;SDS011;3400;48.506;11.692;2023-02-23T07:55:39;25.73;;;20.23;;
6725;SDS011;3400;48.506;11.692;2023-02-23T07:58:06;20.87;;;17.80;;
6725;SDS011;3400;48.506;11.692;2023-02-23T08:00:36;24.83;;;18.80;;
6725;SDS011;3400;48.506;11.692;2023-02-23T08:03:04;25.57;;;18.83;;
6725;SDS011;3400;48.506;11.692;2023-02-23T08:05:32;23.07;;;19.40;;
6725;SDS011;3400;48.506;11.692;2023-02-23T08:08:01;25.07;;;20.30;;
6725;SDS011;3400;48.506;11.692;2023-02-23T08:10:28;24.90;;;19.43;;
6725;SDS011;3400;48.506;11.692;2023-02-23T08:12:56;24.47;;;18.83;;
6725;SDS011;3400;48.506;11.692;2023-02-23T08:15:24;27.40;;;19.50;;
6725;SDS011;3400;48.506;11.692;2023-02-23T08:17:53;23.80;;;19.23;;
6725;SDS011;3400;48.506;11.692;2023-02-23T08:20:21;28.07;;;18.20;;
6725;SDS011;3400;48.506;11.692;2023-02-23T08:22:51;23.03;;;18.63;;
6725;SDS011;3400;48.506;11.692;2023-02-23T08:25:19;26.87;;;20.40;;
6725;SDS011;3400;48.506;11.692;2023-02-23T08:27:47;25.33;;;19.47;;
6725;SDS011;3400;48.506;11.692;2023-02-23T08:30:17;24.07;;;19.43;;
6725;SDS011;3400;48.506;11.692;2023-02-23T08:32:44;27.67;;;19.20;;
6725;SDS011;3400;48.506;11.692;2023-02-23T08:35:14;29.13;;;20.30;;
6725;SDS011;3400;48.506;11.692;2023-02-23T08:37:41;25.07;;;19.00;;
6725;SDS011;3400;48.506;11.692;2023-02-23T08:40:10;23.47;;;18.70;;
6725;SDS011;3400;48.506;11.692;2023-02-23T08:42:40;20.63;;;17.33;;
6725;SDS011;3400;48.506;11.692;2023-02-23T08:45:08;22.53;;;17.67;;
6725;SDS011;3400;48.506;11.692;2023-02-23T08:47:36;23.13;;;18.60;;
6725;SDS011;3400;48.506;11.692;2023-02-23T08:50:04;22.47;;;18.53;;
6725;SDS011;3400;48.506;11.692;2023-02-23T08:52:33;23.57;;;18.87;;
6725;SDS011;3400;48.506;11.692;2023-02-23T08:55:00;25.63;;;18.83;;
6725;SDS011;3400;48.506;11.692;2023-02-23T08:57:28;24.40;;;18.20;;
6725;SDS011;3400;48.506;11.692;2023-02-23T08:59:58;24.80;;;19.53;;
6725;SDS011;3400;48.506;11.692;2023-02-23T09:02:26;24.27;;;18.90;;
6725;SDS011;3400;48.506;11.692;2023-02-23T09:04:54;24.23;;;18.77;;
6725;SDS011;3400;48.506;11.692;2023-02-23T09:07:22;24.77;;;18.83;;
6725;SDS011;3400;48.506;11.692;2023-02-23T09:09:55;26.27;;;19.50;;
6725;SDS011;3400;48.506;11.692;2023-02-23T09:12:23;23.90;;;18.37;;
6725;SDS011;3400;48.506;11.692;2023-02-23T09:14:51;22.83;;;17.80;;
6725;SDS011;3400;48.506;11.692;2023-02-23T09:17:19;20.17;;;16.87;;
6725;SDS011;3400;48.506;11.692;2023-02-23T09:19:47;23.20;;;17.47;;
6725;SDS011;3400;48.506;11.692;2023-02-23T09:22:15;19.23;;;15.77;;
6725;SDS011;3400;48.506;11.692;2023-02-23T09:24:44;22.03;;;16.47;;
6725;SDS011;3400;48.506;11.692;2023-02-23T09:27:13;19.80;;;15.50;;
6725;SDS011;3400;48.506;11.692;2023-02-23T09:29:41;24.27;;;15.37;;
6725;SDS011;3400;48.506;11.692;2023-02-23T09:32:09;18.83;;;15.80;;
6725;SDS011;3400;48.506;11.692;2023-02-23T09:34:37;20.13;;;15.13;;
6725;SDS011;3400;48.506;11.692;2023-02-23T09:37:04;19.13;;;16.17;;
6725;SDS011;3400;48.506;11.692;2023-02-23T09:39:33;19.37;;;15.87;;
6725;SDS011;3400;48.506;11.692;2023-02-23T09:42:09;21.00;;;15.97;;
6725;SDS011;3400;48.506;11.692;2023-02-23T09:44:47;23.00;;;16.60;;
6725;SDS011;3400;48.506;11.692;2023-02-23T09:47:20;24.70;;;14.73;;
6725;SDS011;3400;48.506;11.692;2023-02-23T09:49:51;22.37;;;15.13;;
6725;SDS011;3400;48.506;11.692;2023-02-23T09:52:21;19.93;;;14.30;;
6725;SDS011;3400;48.506;11.692;2023-02-23T09:54:50;18.87;;;14.60;;
6725;SDS011;3400;48.506;11.692;2023-02-23T09:57:19;17.20;;;14.70;;
6725;SDS011;3400;48.506;11.692;2023-02-23T09:59:51;18.90;;;14.70;;
6725;SDS011;3400;48.506;11.692;2023-02-23T10:02:22;15.50;;;13.37;;
6725;SDS011;3400;48.506;11.692;2023-02-23T10:04:50;20.07;;;15.30;;
6725;SDS011;3400;48.506;11.692;2023-02-23T10:07:20;20.20;;;14.20;;
6725;SDS011;3400;48.506;11.692;2023-02-23T10:09:54;16.70;;;14.53;;
6725;SDS011;3400;48.506;11.692;2023-02-23T10:12:28;18.93;;;15.60;;
6725;SDS011;3400;48.506;11.692;2023-02-23T10:15:04;19.87;;;14.73;;
6725;SDS011;3400;48.506;11.692;2023-02-23T10:17:38;21.77;;;16.40;;
6725;SDS011;3400;48.506;11.692;2023-02-23T10:20:12;20.40;;;15.63;;
6725;SDS011;3400;48.506;11.692;2023-02-23T10:22:44;16.97;;;14.80;;
6725;SDS011;3400;48.506;11.692;2023-02-23T10:25:14;19.63;;;15.20;;
6725;SDS011;3400;48.506;11.692;2023-02-23T10:27:45;19.27;;;15.40;;
6725;SDS011;3400;48.506;11.692;2023-02-23T10:30:17;20.30;;;16.10;;
6725;SDS011;3400;48.506;11.692;2023-02-23T10:32:48;18.33;;;14.83;;
6725;SDS011;3400;48.506;11.692;2023-02-23T10:35:17;20.33;;;16.27;;
6725;SDS011;3400;48.506;11.692;2023-02-23T10:37:46;18.40;;;15.07;;
6725;SDS011;3400;48.506;11.692;2023-02-23T10:40:14;19.77;;;15.70;;
6725;SDS011;3400;48.506;11.692;2023-02-23T10:42:42;21.30;;;15.80;;
6725;SDS011;3400;48.506;11.692;2023-02-23T10:45:13;17.97;;;15.40;;
6725;SDS011;3400;48.506;11.692;2023-02-23T10:47:45;20.50;;;15.63;;
6725;SDS011;3400;48.506;11.692;2023-02-23T10:50:13;20.87;;;16.77;;
6725;SDS011;3400;48.506;11.692;2023-02-23T10:52:42;22.30;;;16.10;;
6725;SDS011;3400;48.506;11.692;2023-02-23T10:55:19;20.70;;;16.20;;
6725;SDS011;3400;48.506;11.692;2023-02-23T10:57:48;19.23;;;16.77;;
6725;SDS011;3400;48.506;11.692;2023-02-23T11:00:26;20.67;;;14.80;;
6725;SDS011;3400;48.506;11.692;2023-02-23T11:02:59;21.97;;;15.60;;
6725;SDS011;3400;48.506;11.692;2023-02-23T11:05:29;19.87;;;14.83;;
6725;SDS011;3400;48.506;11.692;2023-02-23T11:08:17;19.90;;;16.27;;
6725;SDS011;3400;48.506;11.692;2023-02-23T11:10:58;18.00;;;14.53;;
6725;SDS011;3400;48.506;11.692;2023-02-23T11:13:27;19.17;;;15.27;;
6725;SDS011;3400;48.506;11.692;2023-02-23T11:15:59;15.23;;;13.23;;
6725;SDS011;3400;48.506;11.692;2023-02-23T11:18:29;16.43;;;13.63;;
6725;SDS011;3400;48.506;11.692;2023-02-23T11:20:56;17.33;;;13.23;;
6725;SDS011;3400;48.506;11.692;2023-02-23T11:23:25;17.60;;;13.30;;
6725;SDS011;3400;48.506;11.692;2023-02-23T11:25:55;17.23;;;12.93;;
6725;SDS011;3400;48.506;11.692;2023-02-23T11:28:26;15.17;;;12.80;;
6725;SDS011;3400;48.506;11.692;2023-02-23T11:30:56;14.57;;;12.43;;
6725;SDS011;3400;48.506;11.692;2023-02-23T11:33:26;14.80;;;12.10;;
6725;SDS011;3400;48.506;11.692;2023-02-23T11:35:58;15.73;;;11.80;;
6725;SDS011;3400;48.506;11.692;2023-02-23T11:38:26;12.73;;;11.40;;
6725;SDS011;3400;48.506;11.692;2023-02-23T11:40:58;13.50;;;11.83;;
6725;SDS011;3400;48.506;11.692;2023-02-23T11:43:26;14.47;;;12.40;;
6725;SDS011;3400;48.506;11.692;2023-02-23T11:45:54;13.67;;;10.40;;
6725;SDS011;3400;48.506;11.692;2023-02-23T11:48:24;12.70;;;10.93;;
6725;SDS011;3400;48.506;11.692;2023-02-23T11:50:53;12.27;;;10.53;;
6725;SDS011;3400;48.506;11.692;2023-02-23T11:53:26;12.87;;;9.60;;
6725;SDS011;3400;48.506;11.692;2023-02-23T11:55:57;13.83;;;11.00;;
6725;SDS011;3400;48.506;11.692;2023-02-23T11:58:29;13.70;;;11.20;;
6725;SDS011;3400;48.506;11.692;2023-02-23T12:01:00;13.57;;;10.97;;
6725;SDS011;3400;48.506;11.692;2023-02-23T12:03:31;11.43;;;10.03;;
6725;SDS011;3400;48.506;11.692;2023-02-23T12:05:59;13.23;;;10.83;;
6725;SDS011;3400;48.506;11.692;2023-02-23T12:08:33;15.20;;;11.17;;
6725;SDS011;3400;48.506;11.692;2023-02-23T12:11:05;13.13;;;11.13;;
6725;SDS011;3400;48.506;11.692;2023-02-23T12:13:34;13.77;;;10.67;;
6725;SDS011;3400;48.506;11.692;2023-02-23T12:16:04;15.30;;;10.43;;
6725;SDS011;3400;48.506;11.692;2023-02-23T12:18:39;10.40;;;9.23;;
6725;SDS011;3400;48.506;11.692;2023-02-23T12:21:12;11.27;;;8.47;;
6725;SDS011;3400;48.506;11.692;2023-02-23T12:23:44;12.30;;;9.83;;
6725;SDS011;3400;48.506;11.692;2023-02-23T12:26:13;13.07;;;10.77;;
6725;SDS011;3400;48.506;11.692;2023-02-23T12:28:44;12.90;;;9.93;;
6725;SDS011;3400;48.506;11.692;2023-02-23T12:31:18;14.33;;;11.53;;
6725;SDS011;3400;48.506;11.692;2023-02-23T12:33:49;13.27;;;11.77;;
6725;SDS011;3400;48.506;11.692;2023-02-23T12:36:22;12.50;;;11.30;;
6725;SDS011;3400;48.506;11.692;2023-02-23T12:38:58;14.50;;;11.10;;
6725;SDS011;3400;48.506;11.692;2023-02-23T12:41:31;13.87;;;12.40;;
6725;SDS011;3400;48.506;11.692;2023-02-23T12:44:02;15.53;;;12.63;;
6725;SDS011;3400;48.506;11.692;2023-02-23T12:46:33;17.37;;;13.03;;
6725;SDS011;3400;48.506;11.692;2023-02-23T12:49:03;14.83;;;10.87;;
6725;SDS011;3400;48.506;11.692;2023-02-23T12:51:34;13.83;;;11.90;;
6725;SDS011;3400;48.506;11.692;2023-02-23T12:54:04;14.43;;;10.63;;
6725;SDS011;3400;48.506;11.692;2023-02-23T12:56:42;12.80;;;11.47;;
6725;SDS011;3400;48.506;11.692;2023-02-23T12:59:18;20.27;;;12.13;;
6725;SDS011;3400;48.506;11.692;2023-02-23T13:01:49;13.63;;;11.47;;
6725;SDS011;3400;48.506;11.692;2023-02-23T13:04:31;17.17;;;12.00;;
6725;SDS011;3400;48.506;11.692;2023-02-23T13:07:05;16.63;;;11.33;;
6725;SDS011;3400;48.506;11.692;2023-02-23T13:09:41;10.77;;;9.73;;
6725;SDS011;3400;48.506;11.692;2023-02-23T13:12:14;13.53;;;9.80;;
6725;SDS011;3400;48.506;11.692;2023-02-23T13:14:44;12.47;;;10.57;;
6725;SDS011;3400;48.506;11.692;2023-02-23T13:17:19;10.83;;;8.53;;
6725;SDS011;3400;48.506;11.692;2023-02-23T13:19:52;12.23;;;9.83;;
6725;SDS011;3400;48.506;11.692;2023-02-23T13:22:25;10.17;;;8.37;;
6725;SDS011;3400;48.506;11.692;2023-02-23T13:24:56;10.57;;;8.63;;
6725;SDS011;3400;48.506;11.692;2023-02-23T13:27:27;9.37;;;8.10;;
6725;SDS011;3400;48.506;11.692;2023-02-23T13:29:56;7.13;;;5.83;;
6725;SDS011;3400;48.506;11.692;2023-02-23T13:32:24;6.27;;;5.27;;
6725;SDS011;3400;48.506;11.692;2023-02-23T13:34:56;6.47;;;5.47;;
6725;SDS011;3400;48.506;11.692;2023-02-23T13:37:25;6.93;;;5.90;;
6725;SDS011;3400;48.506;11.692;2023-02-23T13:40:00;8.37;;;6.03;;
6725;SDS011;3400;48.506;11.692;2023-02-23T13:42:41;8.53;;;5.90;;
6725;SDS011;3400;48.506;11.692;2023-02-23T13:45:15;9.03;;;7.30;;
6725;SDS011;3400;48.506;11.692;2023-02-23T13:47:48;8.33;;;7.43;;
6725;SDS011;3400;48.506;11.692;2023-02-23T13:50:21;9.07;;;7.53;;
6725;SDS011;3400;48.506;11.692;2023-02-23T13:52:51;8.67;;;7.67;;
6725;SDS011;3400;48.506;11.692;2023-02-23T13:58:11;7.90;;;7.00;;
6725;SDS011;3400;48.506;11.692;2023-02-23T14:00:40;7.73;;;6.90;;
6725;SDS011;3400;48.506;11.692;2023-02-23T14:03:19;10.03;;;7.67;;
6725;SDS011;3400;48.506;11.692;2023-02-23T14:05:48;9.27;;;8.30;;
6725;SDS011;3400;48.506;11.692;2023-02-23T14:08:19;9.17;;;7.83;;
6725;SDS011;3400;48.506;11.692;2023-02-23T14:10:48;8.03;;;7.23;;
6725;SDS011;3400;48.506;11.692;2023-02-23T14:13:26;9.07;;;7.73;;
6725;SDS011;3400;48.506;11.692;2023-02-23T14:16:11;8.67;;;7.67;;
6725;SDS011;3400;48.506;11.692;2023-02-23T14:18:51;9.27;;;7.57;;
6725;SDS011;3400;48.506;11.692;2023-02-23T14:21:21;10.60;;;8.07;;
6725;SDS011;3400;48.506;11.692;2023-02-23T14:24:01;10.00;;;7.60;;
6725;SDS011;3400;48.506;11.692;2023-02-23T14:26:40;11.40;;;8.40;;
6725;SDS011;3400;48.506;11.692;2023-02-23T14:29:10;7.97;;;7.17;;
6725;SDS011;3400;48.506;11.692;2023-02-23T14:31:51;8.37;;;7.50;;
6725;SDS011;3400;48.506;11.692;2023-02-23T14:34:19;8.90;;;6.87;;
6725;SDS011;3400;48.506;11.692;2023-02-23T14:36:48;7.93;;;7.13;;
6725;SDS011;3400;48.506;11.692;2023-02-23T14:39:18;9.20;;;8.00;;
6725;SDS011;3400;48.506;11.692;2023-02-23T14:41:49;8.63;;;7.43;;
6725;SDS011;3400;48.506;11.692;2023-02-23T14:44:19;8.20;;;7.27;;
6725;SDS011;3400;48.506;11.692;2023-02-23T14:46:52;8.63;;;7.77;;
6725;SDS011;3400;48.506;11.692;2023-02-23T14:49:22;10.03;;;7.33;;
6725;SDS011;3400;48.506;11.692;2023-02-23T14:51:52;7.80;;;7.00;;
6725;SDS011;3400;48.506;11.692;2023-02-23T14:54:25;9.23;;;7.07;;
6725;SDS011;3400;48.506;11.692;2023-02-23T14:56:53;8.07;;;7.13;;
6725;SDS011;3400;48.506;11.692;2023-02-23T14:59:24;8.13;;;7.33;;
6725;SDS011;3400;48.506;11.692;2023-02-23T15:01:53;8.20;;;6.67;;
6725;SDS011;3400;48.506;11.692;2023-02-23T15:04:22;7.80;;;6.90;;
6725;SDS011;3400;48.506;11.692;2023-02-23T15:06:51;8.47;;;7.07;;
6725;SDS011;3400;48.506;11.692;2023-02-23T15:09:21;7.97;;;7.23;;
6725;SDS011;3400;48.506;11.692;2023-02-23T15:11:49;9.47;;;7.60;;